createdAt,value
2018-06-16T00:00:41.549Z,15.70
2018-06-16T00:01:41.569Z,16.70
2018-06-16T00:02:41.589Z,15.60
2018-06-16T00:03:41.610Z,16.80
2018-06-16T00:04:41.635Z,17.50
2018-06-16T00:05:41.655Z,17.20
2018-06-16T00:06:41.678Z,15.70
2018-06-16T00:07:41.705Z,17.00
2018-06-16T00:08:41.724Z,16.10
2018-06-16T00:09:41.743Z,17.00
2018-06-16T00:10:41.765Z,18.10
2018-06-16T00:11:41.789Z,19.70
2018-06-16T00:12:41.836Z,19.10
2018-06-16T00:13:41.872Z,19.00
2018-06-16T00:14:41.852Z,18.00
2018-06-16T00:15:41.874Z,18.60
2018-06-16T00:16:41.900Z,19.70
2018-06-16T00:17:41.928Z,18.60
2018-06-16T00:18:41.941Z,18.40
2018-06-16T00:19:41.962Z,18.00
2018-06-16T00:20:41.987Z,18.20
2018-06-16T00:21:42.009Z,18.30
2018-06-16T00:22:42.031Z,19.10
2018-06-16T00:23:42.052Z,18.70
2018-06-16T00:24:42.072Z,20.70
2018-06-16T00:25:42.096Z,18.40
2018-06-16T00:26:42.116Z,18.30
2018-06-16T00:27:42.139Z,19.20
2018-06-16T00:28:42.162Z,18.70
2018-06-16T00:29:42.181Z,17.60
2018-06-16T00:30:42.204Z,19.60
2018-06-16T00:31:42.229Z,18.80
2018-06-16T00:32:42.251Z,19.80
2018-06-16T00:33:42.272Z,19.20
2018-06-16T00:34:42.293Z,19.30
2018-06-16T00:35:42.312Z,18.90
2018-06-16T00:36:42.334Z,19.80
2018-06-16T00:37:42.358Z,19.30
2018-06-16T00:38:42.379Z,18.80
2018-06-16T00:39:42.398Z,19.30
2018-06-16T00:40:42.424Z,19.70
2018-06-16T00:41:42.460Z,18.70
2018-06-16T00:42:42.469Z,19.80
2018-06-16T00:43:42.489Z,19.90
2018-06-16T00:44:42.511Z,20.40
2018-06-16T00:45:42.533Z,20.00
2018-06-16T00:46:42.558Z,19.60
2018-06-16T00:47:42.576Z,19.60
2018-06-16T00:48:42.597Z,19.80
2018-06-16T00:49:42.619Z,20.30
2018-06-16T00:50:42.639Z,19.20
2018-06-16T00:51:42.664Z,20.10
2018-06-16T00:52:42.686Z,19.30
2018-06-16T00:53:42.709Z,20.40
2018-06-16T00:54:42.726Z,19.60
2018-06-16T00:55:42.751Z,20.70
2018-06-16T00:56:42.771Z,19.50
2018-06-16T00:57:42.797Z,19.90
2018-06-16T00:58:42.816Z,20.00
2018-06-16T00:59:42.835Z,21.20
2018-06-16T01:00:42.858Z,20.80
2018-06-16T01:01:42.881Z,21.30
2018-06-16T01:02:42.900Z,20.20
2018-06-16T01:03:42.924Z,20.60
2018-06-16T01:04:42.945Z,20.70
2018-06-16T01:05:42.968Z,20.10
2018-06-16T01:06:42.991Z,20.40
2018-06-16T01:07:43.010Z,21.20
2018-06-16T01:08:43.031Z,20.50
2018-06-16T01:09:43.056Z,20.20
2018-06-16T01:10:43.074Z,20.20
2018-06-16T01:11:43.099Z,20.80
2018-06-16T01:12:43.117Z,20.10
2018-06-16T01:13:43.174Z,20.60
2018-06-16T01:14:43.161Z,19.90
2018-06-16T01:15:43.185Z,18.80
2018-06-16T01:16:43.206Z,19.40
2018-06-16T01:17:43.231Z,20.50
2018-06-16T01:18:43.249Z,19.20
2018-06-16T01:19:43.269Z,20.00
2018-06-16T01:20:43.292Z,20.80
2018-06-16T01:21:43.315Z,19.70
2018-06-16T01:22:43.339Z,19.50
2018-06-16T01:23:43.356Z,20.40
2018-06-16T01:24:43.381Z,20.00
2018-06-16T01:25:43.400Z,20.50
2018-06-16T01:26:43.526Z,20.30
2018-06-16T01:27:43.447Z,20.20
2018-06-16T01:28:43.466Z,20.00
2018-06-16T01:29:43.490Z,19.80
2018-06-16T01:30:43.510Z,20.70
2018-06-16T01:31:43.530Z,20.90
2018-06-16T01:32:43.556Z,20.20
2018-06-16T01:33:43.578Z,20.10
2018-06-16T01:34:43.599Z,20.60
2018-06-16T01:35:43.621Z,20.30
2018-06-16T01:36:43.642Z,21.00
2018-06-16T01:37:43.665Z,20.50
2018-06-16T01:38:43.687Z,21.10
2018-06-16T01:39:43.708Z,20.80
2018-06-16T01:40:43.727Z,20.70
2018-06-16T01:41:43.752Z,21.20
2018-06-16T01:42:43.772Z,21.50
2018-06-16T01:43:43.793Z,21.10
2018-06-16T01:44:43.817Z,20.70
2018-06-16T01:45:43.836Z,20.90
2018-06-16T01:46:43.861Z,21.00
2018-06-16T01:47:43.884Z,21.30
2018-06-16T01:48:43.903Z,21.10
2018-06-16T01:49:43.926Z,21.50
2018-06-16T01:50:43.944Z,21.60
2018-06-16T01:51:43.966Z,21.90
2018-06-16T01:52:43.988Z,22.50
2018-06-16T01:53:44.011Z,22.20
2018-06-16T01:54:44.032Z,22.10
2018-06-16T01:55:44.052Z,21.70
2018-06-16T01:56:44.077Z,22.20
2018-06-16T01:57:44.097Z,22.10
2018-06-16T01:58:44.124Z,21.60
2018-06-16T01:59:44.139Z,21.50
2018-06-16T02:00:44.160Z,20.80
2018-06-16T02:01:44.187Z,22.10
2018-06-16T02:02:44.205Z,22.80
2018-06-16T02:03:44.226Z,23.10
2018-06-16T02:04:44.248Z,22.20
2018-06-16T02:05:44.270Z,21.90
2018-06-16T02:06:44.292Z,21.10
2018-06-16T02:07:44.312Z,22.30
2018-06-16T02:08:44.337Z,22.40
2018-06-16T02:09:44.359Z,21.80
2018-06-16T02:10:44.380Z,22.00
2018-06-16T02:11:44.402Z,22.60
2018-06-16T02:12:44.424Z,22.00
2018-06-16T02:13:44.445Z,21.70
2018-06-16T02:14:44.468Z,23.00
2018-06-16T02:15:44.487Z,23.00
2018-06-16T02:16:44.510Z,22.70
2018-06-16T02:17:44.533Z,21.80
2018-06-16T02:18:44.550Z,22.60
2018-06-16T02:19:44.574Z,22.00
2018-06-16T02:20:44.593Z,22.00
2018-06-16T02:21:44.616Z,22.40
2018-06-16T02:22:44.636Z,23.30
2018-06-16T02:23:44.660Z,22.20
2018-06-16T02:24:44.678Z,23.10
2018-06-16T02:25:44.700Z,22.20
2018-06-16T02:26:44.723Z,21.60
2018-06-16T02:27:44.743Z,21.70
2018-06-16T02:28:44.765Z,22.30
2018-06-16T02:29:44.790Z,22.60
2018-06-16T02:30:44.812Z,21.40
2018-06-16T02:31:44.832Z,22.50
2018-06-16T02:32:44.852Z,22.60
2018-06-16T02:33:44.881Z,22.20
2018-06-16T02:34:44.894Z,22.30
2018-06-16T02:35:44.922Z,22.30
2018-06-16T02:36:44.937Z,22.20
2018-06-16T02:37:44.961Z,22.40
2018-06-16T02:38:44.984Z,22.40
2018-06-16T02:39:45.001Z,22.70
2018-06-16T02:40:45.024Z,22.30
2018-06-16T02:41:45.047Z,21.60
2018-06-16T02:42:45.066Z,22.80
2018-06-16T02:43:45.087Z,21.10
2018-06-16T02:44:45.113Z,22.10
2018-06-16T02:45:45.134Z,22.40
2018-06-16T02:46:45.152Z,21.80
2018-06-16T02:47:45.174Z,21.10
2018-06-16T02:48:45.193Z,21.30
2018-06-16T02:49:45.219Z,22.20
2018-06-16T02:50:45.240Z,22.20
2018-06-16T02:51:45.388Z,22.40
2018-06-16T02:52:45.279Z,22.60
2018-06-16T02:53:45.301Z,23.00
2018-06-16T02:54:45.323Z,22.00
2018-06-16T02:55:45.343Z,21.00
2018-06-16T02:56:45.368Z,22.00
2018-06-16T02:57:45.390Z,22.50
2018-06-16T02:58:45.408Z,22.10
2018-06-16T02:59:45.427Z,22.20
2018-06-16T03:00:45.451Z,21.80
2018-06-16T03:01:45.474Z,21.30
2018-06-16T03:02:45.495Z,22.50
2018-06-16T03:03:45.513Z,21.80
2018-06-16T03:04:45.537Z,22.00
2018-06-16T03:05:45.556Z,22.20
2018-06-16T03:06:45.582Z,21.00
2018-06-16T03:07:45.598Z,21.80
2018-06-16T03:08:45.624Z,21.30
2018-06-16T03:09:45.641Z,21.50
2018-06-16T03:10:45.662Z,19.70
2018-06-16T03:11:45.686Z,22.10
2018-06-16T03:12:45.706Z,21.30
2018-06-16T03:13:45.727Z,20.20
2018-06-16T03:14:45.748Z,20.90
2018-06-16T03:15:45.768Z,20.20
2018-06-16T03:16:45.789Z,21.80
2018-06-16T03:17:45.811Z,20.70
2018-06-16T03:18:45.833Z,21.40
2018-06-16T03:19:45.860Z,21.00
2018-06-16T03:20:45.877Z,21.60
2018-06-16T03:21:45.898Z,20.50
2018-06-16T03:22:45.919Z,20.80
2018-06-16T03:23:45.941Z,21.20
2018-06-16T03:24:45.960Z,20.00
2018-06-16T03:25:45.984Z,21.10
2018-06-16T03:26:46.003Z,21.20
2018-06-16T03:27:46.022Z,21.50
2018-06-16T03:28:46.045Z,20.90
2018-06-16T03:29:46.065Z,20.80
2018-06-16T03:30:46.087Z,20.60
2018-06-16T03:31:46.107Z,20.50
2018-06-16T03:32:46.128Z,21.30
2018-06-16T03:33:46.150Z,20.00
2018-06-16T03:34:46.174Z,19.80
2018-06-16T03:35:46.193Z,20.00
2018-06-16T03:36:46.216Z,20.20
2018-06-16T03:37:46.240Z,20.00
2018-06-16T03:38:46.259Z,20.50
2018-06-16T03:39:46.278Z,20.60
2018-06-16T03:40:46.298Z,20.10
2018-06-16T03:41:46.319Z,21.30
2018-06-16T03:42:46.340Z,20.60
2018-06-16T03:43:46.361Z,20.50
2018-06-16T03:44:46.382Z,20.30
2018-06-16T03:45:46.407Z,21.10
2018-06-16T03:46:46.443Z,20.90
2018-06-16T03:47:46.445Z,20.10
2018-06-16T03:48:46.468Z,20.60
2018-06-16T03:49:46.488Z,20.20
2018-06-16T03:50:46.509Z,20.30
2018-06-16T03:51:46.530Z,19.70
2018-06-16T03:52:46.553Z,19.70
2018-06-16T03:53:46.574Z,19.40
2018-06-16T03:54:46.596Z,18.30
2018-06-16T03:55:46.615Z,19.20
2018-06-16T03:56:46.639Z,18.70
2018-06-16T03:57:46.661Z,18.80
2018-06-16T03:58:46.681Z,19.30
2018-06-16T03:59:46.699Z,19.00
2018-06-16T04:00:46.721Z,17.70
2018-06-16T04:01:46.771Z,18.80
2018-06-16T04:02:46.771Z,18.70
2018-06-16T04:03:46.785Z,18.10
2018-06-16T04:04:46.808Z,17.60
2018-06-16T04:05:46.827Z,17.90
2018-06-16T04:06:46.854Z,17.90
2018-06-16T04:07:46.871Z,17.80
2018-06-16T04:08:46.894Z,17.00
2018-06-16T04:09:46.911Z,17.40
2018-06-16T04:10:46.936Z,17.30
2018-06-16T04:11:46.955Z,17.30
2018-06-16T04:12:46.975Z,18.00
2018-06-16T04:13:46.999Z,17.30
2018-06-16T04:14:47.020Z,17.40
2018-06-16T04:15:47.039Z,16.50
2018-06-16T04:16:47.062Z,18.30
2018-06-16T04:17:47.084Z,17.20
2018-06-16T04:18:47.103Z,18.20
2018-06-16T04:19:47.127Z,17.20
2018-06-16T04:20:47.149Z,17.90
2018-06-16T04:21:47.166Z,18.10
2018-06-16T04:22:47.187Z,18.70
2018-06-16T04:23:47.208Z,18.40
2018-06-16T04:24:47.230Z,17.60
2018-06-16T04:25:47.254Z,18.50
2018-06-16T04:26:47.273Z,18.00
2018-06-16T04:27:47.299Z,17.70
2018-06-16T04:28:47.316Z,18.20
2018-06-16T04:29:47.336Z,18.80
2018-06-16T04:30:47.361Z,18.20
2018-06-16T04:31:47.380Z,17.10
2018-06-16T04:32:47.400Z,17.60
2018-06-16T04:33:47.425Z,18.50
2018-06-16T04:34:47.507Z,17.40
2018-06-16T04:35:47.469Z,18.10
2018-06-16T04:36:47.486Z,17.80
2018-06-16T04:37:47.509Z,17.50
2018-06-16T04:38:47.527Z,16.20
2018-06-16T04:39:47.548Z,17.20
2018-06-16T04:40:47.573Z,17.50
2018-06-16T04:41:47.595Z,17.20
2018-06-16T04:42:47.614Z,17.10
2018-06-16T04:43:47.635Z,17.00
2018-06-16T04:44:47.656Z,16.50
2018-06-16T04:45:47.712Z,17.10
2018-06-16T04:46:47.700Z,15.70
2018-06-16T04:47:47.717Z,16.60
2018-06-16T04:48:47.742Z,15.80
2018-06-16T04:49:47.762Z,14.80
2018-06-16T04:50:47.783Z,16.40
2018-06-16T04:51:47.804Z,15.10
2018-06-16T04:52:47.829Z,15.70
2018-06-16T04:53:47.849Z,14.40
2018-06-16T04:54:47.873Z,15.00
2018-06-16T04:55:47.892Z,15.20
2018-06-16T04:56:47.913Z,15.80
2018-06-16T04:57:47.933Z,15.10
2018-06-16T04:58:47.954Z,14.40
2018-06-16T04:59:47.975Z,14.50
2018-06-16T05:00:47.998Z,14.70
2018-06-16T05:01:48.021Z,13.50
2018-06-16T05:02:48.042Z,14.30
2018-06-16T05:03:48.064Z,14.00
2018-06-16T05:04:48.082Z,14.20
2018-06-16T05:05:48.107Z,13.50
2018-06-16T05:06:48.131Z,13.30
2018-06-16T05:07:48.149Z,13.00
2018-06-16T05:08:48.172Z,13.50
2018-06-16T05:09:48.192Z,13.60
2018-06-16T05:10:48.215Z,12.70
2018-06-16T05:11:48.233Z,12.50
2018-06-16T05:12:48.254Z,12.60
2018-06-16T05:13:48.283Z,13.20
2018-06-16T05:14:48.298Z,11.60
2018-06-16T05:15:48.322Z,11.80
2018-06-16T05:16:48.341Z,11.50
2018-06-16T05:17:48.363Z,12.00
2018-06-16T05:18:48.387Z,11.10
2018-06-16T05:19:48.406Z,11.10
2018-06-16T05:20:48.431Z,11.70
2018-06-16T05:21:48.457Z,11.70
2018-06-16T05:22:48.475Z,11.40
2018-06-16T05:23:48.495Z,11.10
2018-06-16T05:24:48.515Z,10.80
2018-06-16T05:25:48.551Z,11.10
2018-06-16T05:26:48.563Z,10.40
2018-06-16T05:27:48.593Z,10.40
2018-06-16T05:28:48.603Z,10.30
2018-06-16T05:29:48.627Z,10.50
2018-06-16T05:30:48.649Z,10.60
2018-06-16T05:31:48.668Z,10.40
2018-06-16T05:32:48.689Z,11.00
2018-06-16T05:33:48.719Z,10.20
2018-06-16T05:34:48.733Z,10.40
2018-06-16T05:35:48.757Z,10.20
2018-06-16T05:36:48.777Z,10.20
2018-06-16T05:37:48.803Z,10.30
2018-06-16T05:38:48.826Z,10.90
2018-06-16T05:39:48.846Z,10.40
2018-06-16T05:40:48.868Z,10.30
2018-06-16T05:41:48.889Z,10.80
2018-06-16T05:42:48.913Z,11.20
2018-06-16T05:43:48.935Z,11.00
2018-06-16T05:44:48.957Z,10.20
2018-06-16T05:45:48.977Z,10.90
2018-06-16T05:46:49.005Z,10.30
2018-06-16T05:47:49.019Z,10.80
2018-06-16T05:48:49.044Z,10.60
2018-06-16T05:49:49.067Z,10.30
2018-06-16T05:50:49.089Z,10.50
2018-06-16T05:51:49.111Z,10.60
2018-06-16T05:52:49.130Z,10.50
2018-06-16T05:53:49.154Z,10.60
2018-06-16T05:54:49.176Z,11.00
2018-06-16T05:55:49.202Z,10.40
2018-06-16T05:56:49.220Z,10.70
2018-06-16T05:57:49.242Z,10.50
2018-06-16T05:58:49.269Z,10.50
2018-06-16T05:59:49.286Z,10.30
2018-06-16T06:00:49.309Z,10.50
2018-06-16T06:01:49.334Z,10.80
2018-06-16T06:02:49.356Z,9.70
2018-06-16T06:03:49.375Z,10.70
2018-06-16T06:04:49.400Z,10.90
2018-06-16T06:05:49.421Z,10.60
2018-06-16T06:06:49.447Z,10.40
2018-06-16T06:07:49.467Z,9.80
2018-06-16T06:08:49.491Z,10.40
2018-06-16T06:09:49.510Z,9.80
2018-06-16T06:10:49.537Z,10.50
2018-06-16T06:11:49.558Z,10.00
2018-06-16T06:12:49.583Z,9.70
2018-06-16T06:13:49.602Z,10.70
2018-06-16T06:14:49.625Z,9.90
2018-06-16T06:15:49.717Z,9.50
2018-06-16T06:16:49.671Z,9.50
2018-06-16T06:17:49.690Z,10.20
2018-06-16T06:18:49.714Z,9.50
2018-06-16T06:19:49.739Z,9.30
2018-06-16T06:20:49.757Z,9.00
2018-06-16T06:21:49.787Z,9.70
2018-06-16T06:22:49.804Z,10.00
2018-06-16T06:23:49.826Z,9.50
2018-06-16T06:24:49.848Z,9.40
2018-06-16T06:25:49.871Z,8.80
2018-06-16T06:26:49.900Z,9.60
2018-06-16T06:27:49.922Z,9.40
2018-06-16T06:28:49.942Z,9.70
2018-06-16T06:29:49.962Z,9.50
2018-06-16T06:30:49.986Z,9.60
2018-06-16T06:31:50.008Z,9.10
2018-06-16T06:32:50.030Z,9.00
2018-06-16T06:33:50.055Z,8.90
2018-06-16T06:34:50.080Z,9.40
2018-06-16T06:35:50.104Z,9.10
2018-06-16T06:36:50.125Z,9.20
2018-06-16T06:37:50.145Z,8.40
2018-06-16T06:38:50.170Z,8.50
2018-06-16T06:39:50.194Z,8.00
2018-06-16T06:40:50.215Z,7.70
2018-06-16T06:41:50.239Z,8.00
2018-06-16T06:42:50.262Z,7.60
2018-06-16T06:43:50.286Z,7.80
2018-06-16T06:44:50.307Z,7.00
2018-06-16T06:45:50.331Z,7.30
2018-06-16T06:46:50.357Z,7.40
2018-06-16T06:47:50.380Z,7.80
2018-06-16T06:48:50.400Z,7.90
2018-06-16T06:49:50.426Z,7.00
2018-06-16T06:50:50.448Z,7.40
2018-06-16T06:51:50.475Z,7.30
2018-06-16T06:52:50.494Z,7.90
2018-06-16T06:53:50.519Z,7.70
2018-06-16T06:54:50.544Z,6.30
2018-06-16T06:55:50.569Z,7.00
2018-06-16T06:56:50.591Z,6.60
2018-06-16T06:57:50.639Z,7.00
2018-06-16T06:58:50.637Z,7.00
2018-06-16T06:59:50.663Z,6.60
2018-06-16T07:00:50.687Z,6.40
2018-06-16T07:01:50.710Z,6.50
2018-06-16T07:02:50.733Z,6.70
2018-06-16T07:03:50.762Z,6.50
2018-06-16T07:04:50.784Z,6.10
2018-06-16T07:05:50.806Z,6.40
2018-06-16T07:06:50.832Z,6.30
2018-06-16T07:07:50.857Z,6.50
2018-06-16T07:08:50.879Z,6.40
2018-06-16T07:09:50.909Z,6.10
2018-06-16T07:10:50.948Z,5.80
2018-06-16T07:11:50.953Z,6.00
2018-06-16T07:12:50.974Z,6.10
2018-06-16T07:13:50.999Z,5.90
2018-06-16T07:14:51.026Z,5.60
2018-06-16T07:15:51.050Z,5.70
2018-06-16T07:16:51.072Z,5.20
2018-06-16T07:17:51.101Z,5.50
2018-06-16T07:18:51.122Z,5.10
2018-06-16T07:19:51.149Z,5.10
2018-06-16T07:20:51.173Z,5.40
2018-06-16T07:21:51.199Z,5.30
2018-06-16T07:22:51.225Z,5.00
2018-06-16T07:23:51.246Z,5.30
2018-06-16T07:24:51.271Z,4.60
2018-06-16T07:25:51.297Z,5.10
2018-06-16T07:26:51.324Z,4.70
2018-06-16T07:27:51.347Z,4.90
2018-06-16T07:28:51.374Z,5.10
2018-06-16T07:29:51.398Z,5.20
2018-06-16T07:30:51.423Z,4.80
2018-06-16T07:31:51.448Z,5.10
2018-06-16T07:32:51.475Z,4.80
2018-06-16T07:33:51.499Z,5.30
2018-06-16T07:34:51.528Z,5.10
2018-06-16T07:35:51.559Z,5.40
2018-06-16T07:36:51.579Z,4.80
2018-06-16T07:37:51.602Z,4.70
2018-06-16T07:38:51.686Z,4.80
2018-06-16T07:39:51.653Z,4.70
2018-06-16T07:40:51.680Z,4.70
2018-06-16T07:41:51.712Z,4.70
2018-06-16T07:42:51.735Z,4.90
2018-06-16T07:43:51.757Z,4.70
2018-06-16T07:44:51.783Z,4.80
2018-06-16T07:45:51.811Z,4.70
2018-06-16T07:46:51.838Z,5.00
2018-06-16T07:47:51.866Z,4.80
2018-06-16T07:48:51.939Z,4.90
2018-06-16T07:49:51.915Z,5.10
2018-06-16T07:50:51.943Z,4.90
2018-06-16T07:51:51.965Z,4.40
2018-06-16T07:52:51.993Z,4.70
2018-06-16T07:55:52.071Z,5.20
2018-06-16T07:56:52.119Z,4.80
2018-06-16T07:57:52.126Z,4.70
2018-06-16T07:58:52.152Z,4.80
2018-06-16T07:59:52.176Z,5.40
2018-06-16T08:00:52.206Z,5.00
2018-06-16T08:01:52.234Z,5.20
2018-06-16T08:02:52.265Z,5.00
2018-06-16T08:03:52.285Z,5.00
2018-06-16T08:04:52.315Z,4.90
2018-06-16T08:05:52.341Z,4.60
2018-06-16T08:06:52.369Z,5.40
2018-06-16T08:07:52.398Z,4.90
2018-06-16T08:08:52.425Z,5.00
2018-06-16T08:09:52.457Z,5.60
2018-06-16T08:10:52.483Z,4.90
2018-06-16T08:11:52.513Z,4.90
2018-06-16T08:12:52.582Z,5.40
2018-06-16T08:13:52.566Z,5.90
2018-06-16T08:14:52.594Z,5.20
2018-06-16T08:15:52.616Z,5.20
2018-06-16T08:16:52.649Z,5.70
2018-06-16T08:17:52.676Z,5.00
2018-06-16T08:18:52.702Z,5.00
2018-06-16T08:19:52.733Z,5.40
2018-06-16T08:20:52.758Z,5.40
2018-06-16T08:21:52.788Z,4.60
2018-06-16T08:22:52.818Z,4.70
2018-06-16T08:23:52.847Z,4.50
2018-06-16T08:24:52.874Z,4.40
2018-06-16T08:25:53.103Z,4.70
2018-06-16T08:26:52.929Z,4.90
2018-06-16T08:27:52.956Z,5.20
2018-06-16T08:28:52.985Z,5.00
2018-06-16T08:29:53.017Z,4.50
2018-06-16T08:30:53.041Z,4.70
2018-06-16T08:31:53.071Z,4.50
2018-06-16T08:32:53.097Z,4.30
2018-06-16T08:33:53.128Z,4.20
2018-06-16T08:34:53.219Z,4.50
2018-06-16T08:35:53.182Z,4.30
2018-06-16T08:36:53.214Z,4.00
2018-06-16T08:37:53.240Z,4.30
2018-06-16T08:38:53.272Z,4.00
2018-06-16T08:39:53.298Z,4.30
2018-06-16T08:40:53.327Z,4.20
2018-06-16T08:41:53.360Z,4.90
2018-06-16T08:42:53.385Z,4.80
2018-06-16T08:43:53.412Z,4.40
2018-06-16T08:44:53.443Z,4.60
2018-06-16T08:45:53.471Z,4.10
2018-06-16T08:46:53.498Z,5.20
2018-06-16T08:47:53.528Z,4.20
2018-06-16T08:48:53.557Z,4.50
2018-06-16T08:49:53.583Z,4.40
2018-06-16T08:50:53.612Z,5.50
2018-06-16T08:51:53.639Z,5.20
2018-06-16T08:52:53.669Z,4.70
2018-06-16T08:53:53.697Z,4.30
2018-06-16T08:54:53.725Z,4.50
2018-06-16T08:55:53.752Z,4.50
2018-06-16T08:56:53.791Z,4.20
2018-06-16T08:57:53.810Z,4.00
2018-06-16T08:58:53.841Z,4.30
2018-06-16T08:59:53.870Z,4.30
2018-06-16T09:00:53.897Z,4.60
2018-06-16T09:01:53.925Z,4.60
2018-06-16T09:02:53.950Z,4.40
2018-06-16T09:03:53.978Z,4.00
2018-06-16T09:04:54.009Z,4.90
2018-06-16T09:05:54.035Z,4.60
2018-06-16T09:06:54.064Z,4.40
2018-06-16T09:07:54.094Z,5.80
2018-06-16T09:08:54.121Z,5.50
2018-06-16T09:09:54.146Z,5.20
2018-06-16T09:10:54.176Z,6.00
2018-06-16T09:11:54.202Z,6.70
2018-06-16T09:12:54.230Z,6.10
2018-06-16T09:13:54.262Z,5.90
2018-06-16T09:14:54.291Z,5.80
2018-06-16T09:15:54.318Z,5.40
2018-06-16T09:16:54.346Z,6.00
2018-06-16T09:17:54.374Z,5.80
2018-06-16T09:18:54.403Z,5.50
2018-06-16T09:19:54.431Z,5.30
2018-06-16T09:20:54.456Z,5.10
2018-06-16T09:21:54.483Z,5.20
2018-06-16T09:22:54.512Z,5.10
2018-06-16T09:23:54.542Z,5.30
2018-06-16T09:24:54.570Z,5.50
2018-06-16T09:25:54.598Z,6.10
2018-06-16T09:26:54.625Z,5.50
2018-06-16T09:27:54.665Z,5.60
2018-06-16T09:28:54.679Z,5.90
2018-06-16T09:29:54.708Z,5.80
2018-06-16T09:30:54.738Z,6.40
2018-06-16T09:31:54.767Z,6.40
2018-06-16T09:32:54.793Z,6.10
2018-06-16T09:33:54.822Z,6.10
2018-06-16T09:34:54.852Z,6.30
2018-06-16T09:35:54.879Z,5.80
2018-06-16T09:36:54.907Z,6.30
2018-06-16T09:37:54.935Z,6.20
2018-06-16T09:38:54.962Z,6.60
2018-06-16T09:39:54.990Z,6.50
2018-06-16T09:40:55.053Z,6.50
2018-06-16T09:41:55.050Z,6.70
2018-06-16T09:42:55.074Z,6.80
2018-06-16T09:43:55.104Z,7.00
2018-06-16T09:44:55.133Z,7.00
2018-06-16T09:45:55.158Z,7.50
2018-06-16T09:46:55.188Z,7.50
2018-06-16T09:47:55.213Z,7.50
2018-06-16T09:48:55.245Z,7.60
2018-06-16T09:49:55.272Z,7.40
2018-06-16T09:50:55.301Z,6.80
2018-06-16T09:51:55.327Z,7.50
2018-06-16T09:52:55.355Z,7.80
2018-06-16T09:53:55.384Z,8.20
2018-06-16T09:54:55.411Z,8.40
2018-06-16T09:55:55.439Z,8.30
2018-06-16T09:56:55.465Z,8.00
2018-06-16T09:57:55.494Z,7.80
2018-06-16T09:58:55.523Z,7.00
2018-06-16T09:59:55.547Z,7.60
2018-06-16T10:00:55.574Z,7.20
2018-06-16T10:01:55.606Z,7.30
2018-06-16T10:02:55.633Z,7.80
2018-06-16T10:03:55.661Z,7.40
2018-06-16T10:04:55.689Z,7.40
2018-06-16T10:05:55.718Z,7.30
2018-06-16T10:06:55.743Z,7.80
2018-06-16T10:07:55.773Z,7.90
2018-06-16T10:08:55.802Z,7.20
2018-06-16T10:09:55.833Z,7.90
2018-06-16T10:10:55.858Z,8.70
2018-06-16T10:11:55.884Z,8.60
2018-06-16T10:12:55.915Z,8.40
2018-06-16T10:13:55.940Z,8.30
2018-06-16T10:14:55.969Z,7.90
2018-06-16T10:15:56.012Z,8.00
2018-06-16T10:16:56.027Z,7.10
2018-06-16T10:17:56.058Z,8.00
2018-06-16T10:18:56.084Z,7.10
2018-06-16T10:19:56.116Z,5.90
2018-06-16T10:20:56.143Z,6.10
2018-06-16T10:21:56.173Z,5.90
2018-06-16T10:22:56.199Z,5.20
2018-06-16T10:23:56.229Z,5.50
2018-06-16T10:24:56.260Z,5.40
2018-06-16T10:25:56.287Z,5.60
2018-06-16T10:26:56.316Z,5.40
2018-06-16T10:27:56.347Z,5.30
2018-06-16T10:28:56.425Z,5.20
2018-06-16T10:29:56.402Z,5.30
2018-06-16T10:30:56.431Z,5.20
2018-06-16T10:31:56.458Z,5.80
2018-06-16T10:32:56.484Z,5.50
2018-06-16T10:33:56.518Z,5.60
2018-06-16T10:34:56.546Z,5.90
2018-06-16T10:35:56.574Z,6.50
2018-06-16T10:36:56.600Z,7.00
2018-06-16T10:37:56.628Z,6.10
2018-06-16T10:38:56.662Z,6.40
2018-06-16T10:39:56.688Z,5.20
2018-06-16T10:40:56.719Z,4.90
2018-06-16T10:41:56.744Z,5.00
2018-06-16T10:42:56.774Z,4.80
2018-06-16T10:43:56.803Z,4.70
2018-06-16T10:44:56.830Z,4.10
2018-06-16T10:45:56.862Z,4.30
2018-06-16T10:46:56.890Z,4.90
2018-06-16T10:47:56.920Z,5.10
2018-06-16T10:48:56.944Z,4.90
2018-06-16T10:49:56.978Z,5.70
2018-06-16T10:50:57.001Z,5.50
2018-06-16T10:51:57.033Z,5.50
2018-06-16T10:52:57.059Z,4.30
2018-06-16T10:53:57.091Z,4.10
2018-06-16T10:54:57.118Z,4.20
2018-06-16T10:55:57.146Z,4.20
2018-06-16T10:56:57.173Z,4.30
2018-06-16T10:57:57.204Z,3.80
2018-06-16T10:58:57.229Z,4.00
2018-06-16T10:59:57.258Z,4.70
2018-06-16T11:00:57.286Z,3.70
2018-06-16T11:01:57.315Z,3.60
2018-06-16T11:02:57.345Z,3.90
2018-06-16T11:03:57.374Z,3.70
2018-06-16T11:04:57.402Z,4.20
2018-06-16T11:05:57.430Z,4.30
2018-06-16T11:06:57.460Z,4.10
2018-06-16T11:07:57.484Z,3.80
2018-06-16T11:08:57.515Z,3.90
2018-06-16T11:09:57.544Z,4.60
2018-06-16T11:10:57.570Z,4.60
2018-06-16T11:11:57.600Z,5.20
2018-06-16T11:12:57.629Z,5.00
2018-06-16T11:13:57.654Z,5.00
2018-06-16T11:14:57.685Z,5.30
2018-06-16T11:15:57.715Z,5.50
2018-06-16T11:16:57.738Z,5.30
2018-06-16T11:17:57.769Z,5.10
2018-06-16T11:18:57.843Z,4.80
2018-06-16T11:19:57.825Z,4.40
2018-06-16T11:20:57.856Z,5.60
2018-06-16T11:21:57.881Z,4.30
2018-06-16T11:22:57.910Z,4.70
2018-06-16T11:23:57.935Z,4.80
2018-06-16T11:24:57.962Z,4.50
2018-06-16T11:25:57.993Z,3.80
2018-06-16T11:26:58.021Z,4.30
2018-06-16T11:27:58.049Z,4.50
2018-06-16T11:28:58.078Z,4.70
2018-06-16T11:29:58.102Z,4.70
2018-06-16T11:30:58.130Z,4.30
2018-06-16T11:31:58.160Z,4.70
2018-06-16T11:32:58.189Z,4.80
2018-06-16T11:33:58.214Z,4.70
2018-06-16T11:34:58.244Z,4.80
2018-06-16T11:35:58.272Z,4.80
2018-06-16T11:36:58.298Z,4.50
2018-06-16T11:37:58.329Z,4.20
2018-06-16T11:38:58.353Z,4.00
2018-06-16T11:39:58.380Z,4.10
2018-06-16T11:40:58.408Z,3.70
2018-06-16T11:41:58.439Z,3.70
2018-06-16T11:42:58.466Z,3.80
2018-06-16T11:43:58.495Z,3.60
2018-06-16T11:44:58.524Z,3.60
2018-06-16T11:45:58.548Z,4.40
2018-06-16T11:46:58.578Z,3.80
2018-06-16T11:47:58.607Z,3.40
2018-06-16T11:48:58.638Z,4.00
2018-06-16T11:49:58.665Z,3.80
2018-06-16T11:50:58.693Z,3.20
2018-06-16T11:51:58.720Z,3.50
2018-06-16T11:52:58.749Z,4.00
2018-06-16T11:53:58.775Z,3.70
2018-06-16T11:54:58.806Z,3.40
2018-06-16T11:55:58.834Z,3.50
2018-06-16T11:56:58.870Z,3.20
2018-06-16T11:57:58.890Z,3.10
2018-06-16T11:58:58.925Z,3.70
2018-06-16T11:59:58.948Z,2.90
2018-06-16T12:00:58.975Z,3.40
2018-06-16T12:01:59.031Z,3.10
2018-06-16T12:02:59.067Z,3.60
2018-06-16T12:03:59.064Z,3.40
2018-06-16T12:04:59.094Z,3.70
2018-06-16T12:05:59.122Z,3.40
2018-06-16T12:06:59.148Z,3.30
2018-06-16T12:07:59.176Z,3.90
2018-06-16T12:08:59.207Z,4.20
2018-06-16T12:09:59.232Z,4.00
2018-06-16T12:10:59.269Z,4.30
2018-06-16T12:11:59.290Z,4.50
2018-06-16T12:12:59.322Z,4.10
2018-06-16T12:13:59.348Z,4.40
2018-06-16T12:14:59.377Z,4.20
2018-06-16T12:15:59.407Z,4.10
2018-06-16T12:16:59.432Z,3.50
2018-06-16T12:17:59.461Z,4.10
2018-06-16T12:18:59.492Z,3.90
2018-06-16T12:19:59.519Z,3.90
2018-06-16T12:20:59.545Z,3.40
2018-06-16T12:21:59.578Z,3.40
2018-06-16T12:22:59.605Z,3.20
2018-06-16T12:23:59.635Z,3.40
2018-06-16T12:24:59.660Z,4.00
2018-06-16T12:25:59.688Z,3.70
2018-06-16T12:26:59.716Z,3.80
2018-06-16T12:27:59.745Z,3.50
2018-06-16T12:28:59.774Z,3.90
2018-06-16T12:29:59.801Z,3.20
2018-06-16T12:30:59.830Z,3.90
2018-06-16T12:31:59.857Z,3.70
2018-06-16T12:32:59.885Z,4.20
2018-06-16T12:33:59.914Z,3.60
2018-06-16T12:34:59.941Z,4.10
2018-06-16T12:35:59.972Z,3.90
2018-06-16T12:37:00.002Z,3.70
2018-06-16T12:38:00.030Z,4.10
2018-06-16T12:39:00.056Z,3.70
2018-06-16T12:40:00.084Z,3.60
2018-06-16T12:41:00.114Z,4.00
2018-06-16T12:42:00.142Z,3.90
2018-06-16T12:43:00.172Z,4.20
2018-06-16T12:44:00.196Z,3.50
2018-06-16T12:45:00.228Z,3.40
2018-06-16T12:46:00.255Z,3.80
2018-06-16T12:47:00.282Z,4.00
2018-06-16T12:48:00.308Z,3.70
2018-06-16T12:49:00.341Z,3.60
2018-06-16T12:50:00.369Z,4.30
2018-06-16T12:51:00.394Z,4.00
2018-06-16T12:52:00.423Z,4.10
2018-06-16T12:53:00.450Z,3.60
2018-06-16T12:54:00.478Z,4.20
2018-06-16T12:55:00.506Z,4.00
2018-06-16T12:56:00.533Z,3.80
2018-06-16T12:57:00.639Z,4.10
2018-06-16T12:58:00.593Z,3.80
2018-06-16T12:59:00.619Z,3.50
2018-06-16T13:00:00.646Z,4.00
2018-06-16T13:01:00.674Z,3.60
2018-06-16T13:02:00.702Z,3.60
2018-06-16T13:03:00.729Z,3.60
2018-06-16T13:04:00.758Z,3.60
2018-06-16T13:05:00.789Z,3.70
2018-06-16T13:06:00.813Z,3.60
2018-06-16T13:07:00.847Z,3.60
2018-06-16T13:08:00.872Z,3.70
2018-06-16T13:09:00.900Z,4.20